PILOTS ONLINE: 225    ATC ONLINE: 24

CYSY - Sachs Harbour (David Nasogaluak Jr. Saaryuaq) Airport

Location

IATA YSY
City Sachs Harbour
Country  Canada
Latitude 71° 59' 38" N
Longitude 125° 14' 34" W
Elevation 282 ft
Type Medium Airport

Runways

08T/26T 4000 ft / 100 ft

Weather

METAR
2014/07/24 23:00
CYSY 242300Z 18010KT 10SM BKN090 11/08 A2965 RMK AC7 12.5/7.5/0.0/0.0/ LAST OBS/NXT 251300Z SLP046
TAF
2014/07/24 19:00
TAF CYSY 241838Z 2419/2423 VRB03KT P6SM FEW090 
      RMK NXT FCST WILL BE ISSUED AT 251445Z

Outbound flights

Inbound flights